sensor_id;sensor_type;location;lat;lon;timestamp;temperature;humidity
64111;DHT22;50401;48.188;11.566;2023-03-01T00:00:52;1.68;72.99
64111;DHT22;50401;48.188;11.566;2023-03-01T00:03:17;1.66;73.08
64111;DHT22;50401;48.188;11.566;2023-03-01T00:05:44;1.55;73.27
64111;DHT22;50401;48.188;11.566;2023-03-01T00:08:11;1.62;73.12
64111;DHT22;50401;48.188;11.566;2023-03-01T00:10:36;1.48;73.02
64111;DHT22;50401;48.188;11.566;2023-03-01T00:13:01;1.59;73.10
64111;DHT22;50401;48.188;11.566;2023-03-01T00:15:27;1.60;73.01
64111;DHT22;50401;48.188;11.566;2023-03-01T00:17:53;1.62;72.87
64111;DHT22;50401;48.188;11.566;2023-03-01T00:20:18;1.56;73.13
64111;DHT22;50401;48.188;11.566;2023-03-01T00:22:43;1.62;73.07
64111;DHT22;50401;48.188;11.566;2023-03-01T00:25:09;1.59;72.97
64111;DHT22;50401;48.188;11.566;2023-03-01T00:27:34;1.62;72.98
64111;DHT22;50401;48.188;11.566;2023-03-01T00:30:00;1.60;72.94
64111;DHT22;50401;48.188;11.566;2023-03-01T00:32:25;1.59;72.97
64111;DHT22;50401;48.188;11.566;2023-03-01T00:34:50;1.42;73.48
64111;DHT22;50401;48.188;11.566;2023-03-01T00:37:23;1.38;73.52
64111;DHT22;50401;48.188;11.566;2023-03-01T00:39:49;1.27;73.96
64111;DHT22;50401;48.188;11.566;2023-03-01T00:42:15;1.40;73.47
64111;DHT22;50401;48.188;11.566;2023-03-01T00:44:41;1.40;73.62
64111;DHT22;50401;48.188;11.566;2023-03-01T00:47:06;1.35;73.46
64111;DHT22;50401;48.188;11.566;2023-03-01T00:49:31;1.22;73.81
64111;DHT22;50401;48.188;11.566;2023-03-01T00:51:57;1.30;73.74
64111;DHT22;50401;48.188;11.566;2023-03-01T00:54:22;1.45;73.12
64111;DHT22;50401;48.188;11.566;2023-03-01T00:56:48;1.52;72.94
64111;DHT22;50401;48.188;11.566;2023-03-01T00:59:13;1.45;73.18
64111;DHT22;50401;48.188;11.566;2023-03-01T01:01:38;1.30;73.39
64111;DHT22;50401;48.188;11.566;2023-03-01T01:04:07;1.19;73.67
64111;DHT22;50401;48.188;11.566;2023-03-01T01:06:44;1.38;73.62
64111;DHT22;50401;48.188;11.566;2023-03-01T01:09:12;1.49;73.12
64111;DHT22;50401;48.188;11.566;2023-03-01T01:11:49;1.58;72.88
64111;DHT22;50401;48.188;11.566;2023-03-01T01:14:16;1.55;72.91
64111;DHT22;50401;48.188;11.566;2023-03-01T01:16:42;1.54;73.07
64111;DHT22;50401;48.188;11.566;2023-03-01T01:19:09;1.58;72.73
64111;DHT22;50401;48.188;11.566;2023-03-01T01:21:34;1.55;72.77
64111;DHT22;50401;48.188;11.566;2023-03-01T01:24:03;1.54;72.83
64111;DHT22;50401;48.188;11.566;2023-03-01T01:26:31;1.44;73.10
64111;DHT22;50401;48.188;11.566;2023-03-01T01:28:57;1.38;73.16
64111;DHT22;50401;48.188;11.566;2023-03-01T01:31:23;1.47;73.23
64111;DHT22;50401;48.188;11.566;2023-03-01T01:33:50;1.42;73.33
64111;DHT22;50401;48.188;11.566;2023-03-01T01:36:16;1.44;73.28
64111;DHT22;50401;48.188;11.566;2023-03-01T01:38:41;1.48;73.28
64111;DHT22;50401;48.188;11.566;2023-03-01T01:41:11;1.47;73.04
64111;DHT22;50401;48.188;11.566;2023-03-01T01:43:39;1.34;73.04
64111;DHT22;50401;48.188;11.566;2023-03-01T01:46:07;1.41;73.24
64111;DHT22;50401;48.188;11.566;2023-03-01T01:48:47;1.42;73.22
64111;DHT22;50401;48.188;11.566;2023-03-01T01:51:17;1.33;73.41
64111;DHT22;50401;48.188;11.566;2023-03-01T01:53:46;1.38;73.52
64111;DHT22;50401;48.188;11.566;2023-03-01T01:56:14;1.37;73.44
64111;DHT22;50401;48.188;11.566;2023-03-01T01:58:41;1.41;73.37
64111;DHT22;50401;48.188;11.566;2023-03-01T02:01:07;1.48;73.17
64111;DHT22;50401;48.188;11.566;2023-03-01T02:03:34;1.44;73.29
64111;DHT22;50401;48.188;11.566;2023-03-01T02:06:17;1.40;73.19
64111;DHT22;50401;48.188;11.566;2023-03-01T02:08:45;1.47;73.18
64111;DHT22;50401;48.188;11.566;2023-03-01T02:11:13;1.35;73.18
64111;DHT22;50401;48.188;11.566;2023-03-01T02:13:40;1.37;73.06
64111;DHT22;50401;48.188;11.566;2023-03-01T02:16:09;1.37;73.28
64111;DHT22;50401;48.188;11.566;2023-03-01T02:18:35;1.34;73.31
64111;DHT22;50401;48.188;11.566;2023-03-01T02:26:54;1.24;73.74
64111;DHT22;50401;48.188;11.566;2023-03-01T02:29:20;1.24;73.38
64111;DHT22;50401;48.188;11.566;2023-03-01T02:31:46;1.19;73.50
64111;DHT22;50401;48.188;11.566;2023-03-01T02:34:18;1.17;73.66
64111;DHT22;50401;48.188;11.566;2023-03-01T02:37:03;0.92;74.31
64111;DHT22;50401;48.188;11.566;2023-03-01T02:39:59;1.04;74.13
64111;DHT22;50401;48.188;11.566;2023-03-01T02:42:33;1.20;73.65
64111;DHT22;50401;48.188;11.566;2023-03-01T02:45:01;0.85;74.35
64111;DHT22;50401;48.188;11.566;2023-03-01T02:47:26;0.99;74.25
64111;DHT22;50401;48.188;11.566;2023-03-01T02:49:52;1.06;73.78
64111;DHT22;50401;48.188;11.566;2023-03-01T02:57:27;1.13;73.44
64111;DHT22;50401;48.188;11.566;2023-03-01T02:59:54;1.20;72.94
64111;DHT22;50401;48.188;11.566;2023-03-01T03:02:29;1.22;72.87
64111;DHT22;50401;48.188;11.566;2023-03-01T03:05:22;1.14;72.68
64111;DHT22;50401;48.188;11.566;2023-03-01T03:07:48;1.13;72.64
64111;DHT22;50401;48.188;11.566;2023-03-01T03:10:18;1.10;72.57
64111;DHT22;50401;48.188;11.566;2023-03-01T03:12:49;1.08;72.70
64111;DHT22;50401;48.188;11.566;2023-03-01T03:15:14;1.10;72.68
64111;DHT22;50401;48.188;11.566;2023-03-01T03:17:41;1.10;72.51
64111;DHT22;50401;48.188;11.566;2023-03-01T03:20:08;1.10;72.65
64111;DHT22;50401;48.188;11.566;2023-03-01T03:22:38;0.85;73.24
64111;DHT22;50401;48.188;11.566;2023-03-01T03:25:05;0.93;72.62
64111;DHT22;50401;48.188;11.566;2023-03-01T03:27:30;0.95;72.71
64111;DHT22;50401;48.188;11.566;2023-03-01T03:29:57;0.81;72.97
64111;DHT22;50401;48.188;11.566;2023-03-01T03:32:22;0.89;72.97
64111;DHT22;50401;48.188;11.566;2023-03-01T03:34:47;0.95;72.69
64111;DHT22;50401;48.188;11.566;2023-03-01T03:37:14;0.88;72.73
64111;DHT22;50401;48.188;11.566;2023-03-01T03:39:59;1.00;72.79
64111;DHT22;50401;48.188;11.566;2023-03-01T03:42:24;0.90;72.96
64111;DHT22;50401;48.188;11.566;2023-03-01T03:44:50;0.88;72.74
64111;DHT22;50401;48.188;11.566;2023-03-01T03:47:15;0.75;72.83
64111;DHT22;50401;48.188;11.566;2023-03-01T03:49:40;0.69;73.07
64111;DHT22;50401;48.188;11.566;2023-03-01T03:52:06;0.47;73.65
64111;DHT22;50401;48.188;11.566;2023-03-01T03:54:39;0.69;73.15
64111;DHT22;50401;48.188;11.566;2023-03-01T03:57:05;0.75;73.01
64111;DHT22;50401;48.188;11.566;2023-03-01T03:59:30;0.68;73.34
64111;DHT22;50401;48.188;11.566;2023-03-01T04:01:55;0.79;73.31
64111;DHT22;50401;48.188;11.566;2023-03-01T04:04:21;0.82;72.93
64111;DHT22;50401;48.188;11.566;2023-03-01T04:06:46;0.60;73.99
64111;DHT22;50401;48.188;11.566;2023-03-01T04:09:13;0.76;73.52
64111;DHT22;50401;48.188;11.566;2023-03-01T04:11:38;0.76;73.26
64111;DHT22;50401;48.188;11.566;2023-03-01T04:14:04;0.85;73.29
64111;DHT22;50401;48.188;11.566;2023-03-01T04:16:29;0.81;73.55
64111;DHT22;50401;48.188;11.566;2023-03-01T04:18:54;0.78;73.06
64111;DHT22;50401;48.188;11.566;2023-03-01T04:21:20;0.75;73.15
64111;DHT22;50401;48.188;11.566;2023-03-01T04:23:46;0.79;73.08
64111;DHT22;50401;48.188;11.566;2023-03-01T04:26:11;0.73;73.08
64111;DHT22;50401;48.188;11.566;2023-03-01T04:28:39;0.62;73.59
64111;DHT22;50401;48.188;11.566;2023-03-01T04:31:11;0.41;74.01
64111;DHT22;50401;48.188;11.566;2023-03-01T04:33:46;0.40;74.37
64111;DHT22;50401;48.188;11.566;2023-03-01T04:36:13;0.37;74.07
64111;DHT22;50401;48.188;11.566;2023-03-01T04:38:39;0.43;73.68
64111;DHT22;50401;48.188;11.566;2023-03-01T04:41:10;0.43;73.81
64111;DHT22;50401;48.188;11.566;2023-03-01T04:43:36;0.48;73.56
64111;DHT22;50401;48.188;11.566;2023-03-01T04:46:07;0.50;73.81
64111;DHT22;50401;48.188;11.566;2023-03-01T04:48:35;0.43;74.00
64111;DHT22;50401;48.188;11.566;2023-03-01T04:51:00;0.43;74.03
64111;DHT22;50401;48.188;11.566;2023-03-01T04:53:26;0.47;73.91
64111;DHT22;50401;48.188;11.566;2023-03-01T04:55:54;0.44;73.82
64111;DHT22;50401;48.188;11.566;2023-03-01T04:58:19;0.34;74.02
64111;DHT22;50401;48.188;11.566;2023-03-01T05:00:45;0.27;74.18
64111;DHT22;50401;48.188;11.566;2023-03-01T05:03:10;0.26;73.98
64111;DHT22;50401;48.188;11.566;2023-03-01T05:05:37;0.31;74.00
64111;DHT22;50401;48.188;11.566;2023-03-01T05:08:06;0.02;74.83
64111;DHT22;50401;48.188;11.566;2023-03-01T05:10:33;0.06;74.35
64111;DHT22;50401;48.188;11.566;2023-03-01T05:13:00;0.21;74.35
64111;DHT22;50401;48.188;11.566;2023-03-01T05:15:27;0.27;74.11
64111;DHT22;50401;48.188;11.566;2023-03-01T05:17:55;-0.11;74.72
64111;DHT22;50401;48.188;11.566;2023-03-01T05:20:21;-0.19;75.26
64111;DHT22;50401;48.188;11.566;2023-03-01T05:22:51;-0.25;75.34
64111;DHT22;50401;48.188;11.566;2023-03-01T05:25:17;-0.01;74.81
64111;DHT22;50401;48.188;11.566;2023-03-01T05:27:42;-0.23;75.53
64111;DHT22;50401;48.188;11.566;2023-03-01T05:30:08;-0.09;75.09
64111;DHT22;50401;48.188;11.566;2023-03-01T05:32:42;0.12;74.60
64111;DHT22;50401;48.188;11.566;2023-03-01T05:35:10;0.05;74.38
64111;DHT22;50401;48.188;11.566;2023-03-01T05:37:45;-0.04;74.87
64111;DHT22;50401;48.188;11.566;2023-03-01T05:40:12;0.02;74.41
64111;DHT22;50401;48.188;11.566;2023-03-01T05:42:52;0.06;74.18
64111;DHT22;50401;48.188;11.566;2023-03-01T05:45:18;0.06;74.32
64111;DHT22;50401;48.188;11.566;2023-03-01T05:47:45;-0.23;74.97
64111;DHT22;50401;48.188;11.566;2023-03-01T05:50:12;-0.36;75.22
64111;DHT22;50401;48.188;11.566;2023-03-01T05:52:38;-0.39;74.97
64111;DHT22;50401;48.188;11.566;2023-03-01T05:55:04;-0.49;75.41
64111;DHT22;50401;48.188;11.566;2023-03-01T05:57:29;-0.64;75.79
64111;DHT22;50401;48.188;11.566;2023-03-01T05:59:55;-0.71;76.08
64111;DHT22;50401;48.188;11.566;2023-03-01T06:02:20;-0.77;76.58
64111;DHT22;50401;48.188;11.566;2023-03-01T06:04:45;-0.77;76.50
64111;DHT22;50401;48.188;11.566;2023-03-01T06:07:11;-0.67;76.35
64111;DHT22;50401;48.188;11.566;2023-03-01T06:09:36;-0.41;75.66
64111;DHT22;50401;48.188;11.566;2023-03-01T06:12:02;-0.44;75.89
64111;DHT22;50401;48.188;11.566;2023-03-01T06:14:27;-0.39;75.39
64111;DHT22;50401;48.188;11.566;2023-03-01T06:16:52;-0.56;76.01
64111;DHT22;50401;48.188;11.566;2023-03-01T06:19:18;-0.49;76.04
64111;DHT22;50401;48.188;11.566;2023-03-01T06:21:43;-0.21;75.11
64111;DHT22;50401;48.188;11.566;2023-03-01T06:24:08;-0.52;75.48
64111;DHT22;50401;48.188;11.566;2023-03-01T06:26:34;-0.60;75.74
64111;DHT22;50401;48.188;11.566;2023-03-01T06:28:59;-0.58;76.18
64111;DHT22;50401;48.188;11.566;2023-03-01T06:31:25;-0.49;75.86
64111;DHT22;50401;48.188;11.566;2023-03-01T06:33:50;-0.26;75.20
64111;DHT22;50401;48.188;11.566;2023-03-01T06:36:15;-0.04;74.82
64111;DHT22;50401;48.188;11.566;2023-03-01T06:38:44;-0.04;74.43
64111;DHT22;50401;48.188;11.566;2023-03-01T06:41:09;-0.04;74.44
64111;DHT22;50401;48.188;11.566;2023-03-01T06:43:34;-0.44;75.54
64111;DHT22;50401;48.188;11.566;2023-03-01T06:46:00;-0.52;75.98
64111;DHT22;50401;48.188;11.566;2023-03-01T06:48:26;-0.23;75.48
64111;DHT22;50401;48.188;11.566;2023-03-01T06:50:51;-0.43;75.55
64111;DHT22;50401;48.188;11.566;2023-03-01T06:53:17;-0.50;75.60
64111;DHT22;50401;48.188;11.566;2023-03-01T06:55:42;-0.43;75.75
64111;DHT22;50401;48.188;11.566;2023-03-01T06:58:08;-0.22;75.08
64111;DHT22;50401;48.188;11.566;2023-03-01T07:00:34;-0.32;75.56
64111;DHT22;50401;48.188;11.566;2023-03-01T07:03:00;-0.29;75.37
64111;DHT22;50401;48.188;11.566;2023-03-01T07:05:27;-0.43;75.79
64111;DHT22;50401;48.188;11.566;2023-03-01T07:07:53;-0.30;75.84
64111;DHT22;50401;48.188;11.566;2023-03-01T07:10:19;-0.04;74.82
64111;DHT22;50401;48.188;11.566;2023-03-01T07:12:44;0.17;74.48
64111;DHT22;50401;48.188;11.566;2023-03-01T07:15:11;0.01;74.11
64111;DHT22;50401;48.188;11.566;2023-03-01T07:17:36;-0.08;75.04
64111;DHT22;50401;48.188;11.566;2023-03-01T07:20:02;0.05;74.70
64111;DHT22;50401;48.188;11.566;2023-03-01T07:22:28;0.12;74.33
64111;DHT22;50401;48.188;11.566;2023-03-01T07:24:53;0.26;74.01
64111;DHT22;50401;48.188;11.566;2023-03-01T07:27:18;-0.15;74.82
64111;DHT22;50401;48.188;11.566;2023-03-01T07:29:44;-0.02;75.13
64111;DHT22;50401;48.188;11.566;2023-03-01T07:32:09;-0.18;75.47
64111;DHT22;50401;48.188;11.566;2023-03-01T07:34:35;0.20;74.73
64111;DHT22;50401;48.188;11.566;2023-03-01T07:37:00;0.37;74.01
64111;DHT22;50401;48.188;11.566;2023-03-01T07:39:25;0.13;74.36
64111;DHT22;50401;48.188;11.566;2023-03-01T07:41:51;-0.01;74.95
64111;DHT22;50401;48.188;11.566;2023-03-01T07:44:16;0.21;74.37
64111;DHT22;50401;48.188;11.566;2023-03-01T07:46:42;0.19;74.41
64111;DHT22;50401;48.188;11.566;2023-03-01T07:49:08;0.33;73.72
64111;DHT22;50401;48.188;11.566;2023-03-01T07:51:34;0.05;74.09
64111;DHT22;50401;48.188;11.566;2023-03-01T07:53:59;0.29;73.67
64111;DHT22;50401;48.188;11.566;2023-03-01T07:56:25;0.29;73.33
64111;DHT22;50401;48.188;11.566;2023-03-01T07:58:50;-0.01;74.08
64111;DHT22;50401;48.188;11.566;2023-03-01T08:01:19;-0.04;74.47
64111;DHT22;50401;48.188;11.566;2023-03-01T08:03:45;0.02;74.37
64111;DHT22;50401;48.188;11.566;2023-03-01T08:06:12;-0.16;74.34
64111;DHT22;50401;48.188;11.566;2023-03-01T08:08:38;0.07;74.18
64111;DHT22;50401;48.188;11.566;2023-03-01T08:11:05;0.05;73.83
64111;DHT22;50401;48.188;11.566;2023-03-01T08:13:32;-0.08;74.14
64111;DHT22;50401;48.188;11.566;2023-03-01T08:16:10;-0.04;74.10
64111;DHT22;50401;48.188;11.566;2023-03-01T08:18:36;0.09;73.95
64111;DHT22;50401;48.188;11.566;2023-03-01T08:21:12;0.33;73.27
64111;DHT22;50401;48.188;11.566;2023-03-01T08:23:38;0.31;73.09
64111;DHT22;50401;48.188;11.566;2023-03-01T08:26:20;0.24;72.63
64111;DHT22;50401;48.188;11.566;2023-03-01T08:28:47;0.07;73.31
64111;DHT22;50401;48.188;11.566;2023-03-01T08:31:28;0.34;72.92
64111;DHT22;50401;48.188;11.566;2023-03-01T08:33:56;0.41;72.90
64111;DHT22;50401;48.188;11.566;2023-03-01T08:36:30;0.14;73.31
64111;DHT22;50401;48.188;11.566;2023-03-01T08:38:55;0.37;73.37
64111;DHT22;50401;48.188;11.566;2023-03-01T08:41:21;0.26;73.32
64111;DHT22;50401;48.188;11.566;2023-03-01T08:43:46;0.51;72.55
64111;DHT22;50401;48.188;11.566;2023-03-01T08:46:12;0.43;72.86
64111;DHT22;50401;48.188;11.566;2023-03-01T08:48:37;0.76;71.95
64111;DHT22;50401;48.188;11.566;2023-03-01T08:51:17;1.01;71.11
64111;DHT22;50401;48.188;11.566;2023-03-01T08:53:43;0.95;71.19
64111;DHT22;50401;48.188;11.566;2023-03-01T08:56:09;0.44;72.27
64111;DHT22;50401;48.188;11.566;2023-03-01T08:58:36;0.86;72.15
64111;DHT22;50401;48.188;11.566;2023-03-01T09:01:10;1.13;70.60
64111;DHT22;50401;48.188;11.566;2023-03-01T09:03:36;1.22;70.48
64111;DHT22;50401;48.188;11.566;2023-03-01T09:06:02;0.97;70.69
64111;DHT22;50401;48.188;11.566;2023-03-01T09:08:28;0.97;71.70
64111;DHT22;50401;48.188;11.566;2023-03-01T09:10:54;0.72;72.75
64111;DHT22;50401;48.188;11.566;2023-03-01T09:13:19;0.73;72.68
64111;DHT22;50401;48.188;11.566;2023-03-01T09:15:45;1.10;71.74
64111;DHT22;50401;48.188;11.566;2023-03-01T09:18:10;1.30;71.08
64111;DHT22;50401;48.188;11.566;2023-03-01T09:20:36;0.78;72.17
64111;DHT22;50401;48.188;11.566;2023-03-01T09:25:34;1.08;71.71
64111;DHT22;50401;48.188;11.566;2023-03-01T09:28:00;1.17;72.01
64111;DHT22;50401;48.188;11.566;2023-03-01T09:30:25;1.41;71.27
64111;DHT22;50401;48.188;11.566;2023-03-01T09:32:51;1.49;71.28
64111;DHT22;50401;48.188;11.566;2023-03-01T09:35:17;1.60;70.88
64111;DHT22;50401;48.188;11.566;2023-03-01T09:37:45;1.35;70.91
64111;DHT22;50401;48.188;11.566;2023-03-01T09:40:16;1.13;72.54
64111;DHT22;50401;48.188;11.566;2023-03-01T09:42:52;0.95;72.55
64111;DHT22;50401;48.188;11.566;2023-03-01T09:45:26;1.28;72.73
64111;DHT22;50401;48.188;11.566;2023-03-01T09:47:52;1.31;72.24
64111;DHT22;50401;48.188;11.566;2023-03-01T09:50:19;1.56;71.30
64111;DHT22;50401;48.188;11.566;2023-03-01T09:53:05;1.75;71.02
64111;DHT22;50401;48.188;11.566;2023-03-01T09:55:39;1.62;71.02
64111;DHT22;50401;48.188;11.566;2023-03-01T10:00:44;1.44;71.88
64111;DHT22;50401;48.188;11.566;2023-03-01T10:03:19;1.99;70.10
64111;DHT22;50401;48.188;11.566;2023-03-01T10:06:01;1.44;70.97
64111;DHT22;50401;48.188;11.566;2023-03-01T10:08:34;2.00;69.49
64111;DHT22;50401;48.188;11.566;2023-03-01T10:11:05;2.45;68.46
64111;DHT22;50401;48.188;11.566;2023-03-01T10:13:58;2.35;68.19
64111;DHT22;50401;48.188;11.566;2023-03-01T10:19:05;2.31;68.32
64111;DHT22;50401;48.188;11.566;2023-03-01T10:21:36;2.59;67.31
64111;DHT22;50401;48.188;11.566;2023-03-01T10:24:15;2.27;67.97
64111;DHT22;50401;48.188;11.566;2023-03-01T10:26:50;1.92;68.69
64111;DHT22;50401;48.188;11.566;2023-03-01T10:29:23;2.04;68.59
64111;DHT22;50401;48.188;11.566;2023-03-01T10:31:50;2.41;67.91
64111;DHT22;50401;48.188;11.566;2023-03-01T10:34:25;2.27;67.60
64111;DHT22;50401;48.188;11.566;2023-03-01T10:36:55;2.10;68.13
64111;DHT22;50401;48.188;11.566;2023-03-01T10:39:23;2.75;67.07
64111;DHT22;50401;48.188;11.566;2023-03-01T10:44:39;2.84;67.12
64111;DHT22;50401;48.188;11.566;2023-03-01T10:47:05;2.77;66.82
64111;DHT22;50401;48.188;11.566;2023-03-01T10:49:36;2.60;67.30
64111;DHT22;50401;48.188;11.566;2023-03-01T10:52:18;2.60;67.20
64111;DHT22;50401;48.188;11.566;2023-03-01T10:54:51;2.95;66.92
64111;DHT22;50401;48.188;11.566;2023-03-01T10:57:41;3.04;66.91
64111;DHT22;50401;48.188;11.566;2023-03-01T11:00:21;3.23;66.35
64111;DHT22;50401;48.188;11.566;2023-03-01T11:03:02;2.69;67.55
64111;DHT22;50401;48.188;11.566;2023-03-01T11:05:28;2.60;67.39
64111;DHT22;50401;48.188;11.566;2023-03-01T11:07:57;2.63;67.80
64111;DHT22;50401;48.188;11.566;2023-03-01T11:10:34;2.77;68.23
64111;DHT22;50401;48.188;11.566;2023-03-01T11:13:08;2.93;66.82
64111;DHT22;50401;48.188;11.566;2023-03-01T11:15:34;2.83;67.64
64111;DHT22;50401;48.188;11.566;2023-03-01T11:18:00;2.67;68.31
64111;DHT22;50401;48.188;11.566;2023-03-01T11:22:56;3.28;67.55
64111;DHT22;50401;48.188;11.566;2023-03-01T11:26:09;3.19;67.07
64111;DHT22;50401;48.188;11.566;2023-03-01T11:28:15;3.40;66.97
64111;DHT22;50401;48.188;11.566;2023-03-01T11:31:03;3.07;67.04
64111;DHT22;50401;48.188;11.566;2023-03-01T11:38:32;3.32;67.00
64111;DHT22;50401;48.188;11.566;2023-03-01T11:43:49;3.40;66.36
64111;DHT22;50401;48.188;11.566;2023-03-01T11:46:34;3.67;66.30
64111;DHT22;50401;48.188;11.566;2023-03-01T12:03:52;3.69;66.32
64111;DHT22;50401;48.188;11.566;2023-03-01T12:14:34;3.43;66.55
64111;DHT22;50401;48.188;11.566;2023-03-01T12:20:09;3.71;66.95
64111;DHT22;50401;48.188;11.566;2023-03-01T12:35:54;3.87;66.84
64111;DHT22;50401;48.188;11.566;2023-03-01T12:41:59;4.16;65.76
64111;DHT22;50401;48.188;11.566;2023-03-01T12:49:26;4.08;66.55
64111;DHT22;50401;48.188;11.566;2023-03-01T12:52:03;3.91;67.26
64111;DHT22;50401;48.188;11.566;2023-03-01T12:54:36;4.15;66.62
64111;DHT22;50401;48.188;11.566;2023-03-01T13:03:32;4.32;66.07
64111;DHT22;50401;48.188;11.566;2023-03-01T13:05:53;4.23;66.23
64111;DHT22;50401;48.188;11.566;2023-03-01T13:08:26;4.37;66.23
64111;DHT22;50401;48.188;11.566;2023-03-01T13:11:01;4.43;65.66
64111;DHT22;50401;48.188;11.566;2023-03-01T13:13:28;4.46;65.40
64111;DHT22;50401;48.188;11.566;2023-03-01T13:15:54;4.49;65.85
64111;DHT22;50401;48.188;11.566;2023-03-01T13:20:48;4.44;66.30
64111;DHT22;50401;48.188;11.566;2023-03-01T13:36:10;4.62;66.26
64111;DHT22;50401;48.188;11.566;2023-03-01T13:41:07;4.78;66.20
64111;DHT22;50401;48.188;11.566;2023-03-01T13:43:37;4.81;65.83
64111;DHT22;50401;48.188;11.566;2023-03-01T13:46:21;4.93;66.00
64111;DHT22;50401;48.188;11.566;2023-03-01T13:48:54;4.69;65.93
64111;DHT22;50401;48.188;11.566;2023-03-01T13:51:24;4.68;66.00
64111;DHT22;50401;48.188;11.566;2023-03-01T13:53:51;4.77;66.02
64111;DHT22;50401;48.188;11.566;2023-03-01T13:56:21;4.74;66.20
64111;DHT22;50401;48.188;11.566;2023-03-01T13:58:55;4.78;66.02
64111;DHT22;50401;48.188;11.566;2023-03-01T14:03:49;4.95;66.27
64111;DHT22;50401;48.188;11.566;2023-03-01T14:06:15;4.95;66.43
64111;DHT22;50401;48.188;11.566;2023-03-01T14:08:44;5.06;66.09
64111;DHT22;50401;48.188;11.566;2023-03-01T14:19:43;5.06;66.19
64111;DHT22;50401;48.188;11.566;2023-03-01T14:22:22;5.22;65.89
64111;DHT22;50401;48.188;11.566;2023-03-01T14:24:50;5.22;65.66
64111;DHT22;50401;48.188;11.566;2023-03-01T14:27:17;5.27;65.69
64111;DHT22;50401;48.188;11.566;2023-03-01T14:29:43;5.22;65.87
64111;DHT22;50401;48.188;11.566;2023-03-01T14:32:20;5.23;65.51
64111;DHT22;50401;48.188;11.566;2023-03-01T14:34:50;5.16;66.03
64111;DHT22;50401;48.188;11.566;2023-03-01T14:37:26;5.28;65.71
64111;DHT22;50401;48.188;11.566;2023-03-01T14:39:59;5.33;65.56
64111;DHT22;50401;48.188;11.566;2023-03-01T14:42:29;5.40;65.79
64111;DHT22;50401;48.188;11.566;2023-03-01T14:50:23;5.56;65.61
64111;DHT22;50401;48.188;11.566;2023-03-01T14:52:53;5.59;65.68
64111;DHT22;50401;48.188;11.566;2023-03-01T14:57:56;5.62;65.85
64111;DHT22;50401;48.188;11.566;2023-03-01T15:00:29;5.61;65.91
64111;DHT22;50401;48.188;11.566;2023-03-01T15:11:17;5.72;66.12
64111;DHT22;50401;48.188;11.566;2023-03-01T18:18:20;5.19;71.72
64111;DHT22;50401;48.188;11.566;2023-03-01T18:20:57;5.16;71.66
64111;DHT22;50401;48.188;11.566;2023-03-01T18:23:23;5.13;71.75
64111;DHT22;50401;48.188;11.566;2023-03-01T18:25:49;4.99;71.74
64111;DHT22;50401;48.188;11.566;2023-03-01T18:28:15;5.05;71.75
64111;DHT22;50401;48.188;11.566;2023-03-01T18:30:41;5.03;71.73
64111;DHT22;50401;48.188;11.566;2023-03-01T18:33:06;5.05;71.67
64111;DHT22;50401;48.188;11.566;2023-03-01T18:35:35;5.06;71.42
64111;DHT22;50401;48.188;11.566;2023-03-01T18:38:00;5.05;71.48
64111;DHT22;50401;48.188;11.566;2023-03-01T18:40:28;5.00;71.51
64111;DHT22;50401;48.188;11.566;2023-03-01T18:42:53;5.05;71.37
64111;DHT22;50401;48.188;11.566;2023-03-01T18:45:18;5.00;71.31
64111;DHT22;50401;48.188;11.566;2023-03-01T18:47:44;4.97;71.13
64111;DHT22;50401;48.188;11.566;2023-03-01T18:50:10;4.96;70.93
64111;DHT22;50401;48.188;11.566;2023-03-01T18:52:35;4.95;70.95
64111;DHT22;50401;48.188;11.566;2023-03-01T18:55:01;4.89;70.90
64111;DHT22;50401;48.188;11.566;2023-03-01T18:57:26;4.89;71.02
64111;DHT22;50401;48.188;11.566;2023-03-01T18:59:52;4.84;70.98
64111;DHT22;50401;48.188;11.566;2023-03-01T19:02:17;4.79;71.01
64111;DHT22;50401;48.188;11.566;2023-03-01T19:04:42;4.79;71.00
64111;DHT22;50401;48.188;11.566;2023-03-01T19:07:08;4.69;71.24
64111;DHT22;50401;48.188;11.566;2023-03-01T19:09:33;4.65;71.52
64111;DHT22;50401;48.188;11.566;2023-03-01T19:11:59;4.62;71.60
64111;DHT22;50401;48.188;11.566;2023-03-01T19:14:26;4.62;71.69
64111;DHT22;50401;48.188;11.566;2023-03-01T19:16:52;4.57;71.96
64111;DHT22;50401;48.188;11.566;2023-03-01T19:19:17;4.60;72.15
64111;DHT22;50401;48.188;11.566;2023-03-01T19:21:42;4.56;72.57
64111;DHT22;50401;48.188;11.566;2023-03-01T19:24:08;4.53;72.91
64111;DHT22;50401;48.188;11.566;2023-03-01T19:26:35;4.58;72.96
64111;DHT22;50401;48.188;11.566;2023-03-01T19:29:00;4.57;73.03
64111;DHT22;50401;48.188;11.566;2023-03-01T19:31:28;4.60;73.02
64111;DHT22;50401;48.188;11.566;2023-03-01T19:33:55;4.56;73.14
64111;DHT22;50401;48.188;11.566;2023-03-01T19:36:22;4.57;73.16
64111;DHT22;50401;48.188;11.566;2023-03-01T19:38:56;4.61;73.09
64111;DHT22;50401;48.188;11.566;2023-03-01T19:41:22;4.60;73.13
64111;DHT22;50401;48.188;11.566;2023-03-01T19:43:47;4.47;73.50
64111;DHT22;50401;48.188;11.566;2023-03-01T19:46:13;4.49;73.46
64111;DHT22;50401;48.188;11.566;2023-03-01T19:48:39;4.46;73.41
64111;DHT22;50401;48.188;11.566;2023-03-01T19:51:06;4.46;73.43
64111;DHT22;50401;48.188;11.566;2023-03-01T19:53:32;4.44;73.45
64111;DHT22;50401;48.188;11.566;2023-03-01T19:55:59;4.42;73.46
64111;DHT22;50401;48.188;11.566;2023-03-01T19:58:26;4.34;73.63
64111;DHT22;50401;48.188;11.566;2023-03-01T20:00:52;4.40;73.58
64111;DHT22;50401;48.188;11.566;2023-03-01T20:03:33;4.33;73.80
64111;DHT22;50401;48.188;11.566;2023-03-01T20:05:59;4.32;73.82
64111;DHT22;50401;48.188;11.566;2023-03-01T20:08:31;4.02;74.56
64111;DHT22;50401;48.188;11.566;2023-03-01T20:11:04;3.98;74.67
64111;DHT22;50401;48.188;11.566;2023-03-01T20:13:30;3.97;74.65
64111;DHT22;50401;48.188;11.566;2023-03-01T20:15:55;3.91;74.97
64111;DHT22;50401;48.188;11.566;2023-03-01T20:18:21;3.90;74.94
64111;DHT22;50401;48.188;11.566;2023-03-01T20:20:50;3.90;74.80
64111;DHT22;50401;48.188;11.566;2023-03-01T20:23:17;3.82;74.92
64111;DHT22;50401;48.188;11.566;2023-03-01T20:25:43;3.80;74.99
64111;DHT22;50401;48.188;11.566;2023-03-01T20:28:08;3.78;74.98
64111;DHT22;50401;48.188;11.566;2023-03-01T20:30:36;3.77;75.09
64111;DHT22;50401;48.188;11.566;2023-03-01T20:33:02;3.71;75.18
64111;DHT22;50401;48.188;11.566;2023-03-01T20:35:27;3.70;75.19
64111;DHT22;50401;48.188;11.566;2023-03-01T20:37:57;3.66;75.29
64111;DHT22;50401;48.188;11.566;2023-03-01T20:40:22;3.70;75.32
64111;DHT22;50401;48.188;11.566;2023-03-01T20:42:53;3.80;74.86
64111;DHT22;50401;48.188;11.566;2023-03-01T20:45:19;3.74;75.09
64111;DHT22;50401;48.188;11.566;2023-03-01T20:47:45;3.81;74.74
64111;DHT22;50401;48.188;11.566;2023-03-01T20:50:11;3.78;74.76
64111;DHT22;50401;48.188;11.566;2023-03-01T20:52:36;3.64;75.11